Averill Park, New York
Current Conditions -  °F | °C
As of 5:51 PM on Saturday 25 Oct 2014 (Local Time) from KALB Reporting Station
Broken Clouds Broken Clouds  
Wind Chill: 61°   Ceiling: 7500
Heat Index: 61°   Visibility: 10mi
Dew Point: 44°   Wind: 6mph
Humidity: 54%   Direction: 160°SSE
Pressure: 29.57"   Gusts: NA
Location:  42.64°N, 73.55°W
Report Text: KALB 252151Z 16005KT 10SM BKN075 BKN110 BKN250 16/07 A2957 RMK AO2 SLP013 T01610067 $
Loading
Personal Weather Stations






























Interactive Weather Map
Tropical Storm Tracking
New forecast layout! Learn more

10-Day Weather Forecast

Advertisements
Track Severe Weather on mobile